Terminal Aerodrome Forecast
Issued by NWS Charleston, WV

Current Version | Previous Version | Text Only | Print | Product List | Glossary Off
Versions: 1 2 3 4 5 6 7 8 9 10 11 12 13 14 15 16 17 18 19 20 21 22 23 24 25

000
FTUS41 KRLX 261100
TAFHTS
TAF
KHTS 261130Z 2612/2712 20007KT P6SM SCT045
     FM261400 21011G18KT P6SM BKN045
     FM261600 23012G22KT P6SM SHRA VCTS BKN045CB
     FM261800 28011G20KT 6SM -SHRA OVC035
     FM262000 32010G18KT 3SM -SHRA OVC020
     FM262200 33009G15KT 5SM -SHRA BR OVC015
     FM270200 33006KT P6SM OVC025=

USA.gov is the U.S. government's official web portal to all federal, state and local government web resources and services.